createdAt,value
2022-12-23T08:05:27.071Z,99.99
2022-12-23T08:06:27.682Z,99.99
2022-12-23T08:07:27.748Z,99.99
2022-12-23T08:08:27.670Z,99.99
2022-12-23T08:09:27.760Z,99.99
2022-12-23T08:10:27.674Z,99.99
2022-12-23T08:11:27.777Z,99.99
2022-12-23T08:12:27.625Z,99.99
2022-12-23T08:13:27.796Z,99.99
2022-12-23T08:14:27.597Z,99.99
2022-12-23T08:15:27.833Z,99.99
2022-12-23T08:16:27.699Z,99.99
2022-12-23T08:17:27.820Z,99.99
2022-12-23T08:18:27.547Z,99.99
2022-12-23T08:19:27.777Z,99.99
2022-12-23T08:20:27.551Z,99.99
2022-12-23T08:21:27.849Z,99.99
2022-12-23T08:22:27.577Z,99.99
2022-12-23T08:23:27.770Z,99.99
2022-12-23T08:24:27.549Z,99.99
2022-12-23T08:25:27.497Z,99.99
2022-12-23T08:26:27.604Z,99.99
2022-12-23T08:27:27.486Z,99.99
2022-12-23T08:28:27.693Z,99.99
2022-12-23T08:29:31.307Z,99.99
2022-12-23T08:30:27.457Z,99.99
2022-12-23T08:31:27.789Z,99.99
2022-12-23T08:32:27.450Z,99.99
2022-12-23T08:33:27.686Z,99.99
2022-12-23T08:34:27.399Z,99.99
2022-12-23T08:35:28.559Z,99.99
2022-12-23T08:36:27.389Z,99.99
2022-12-23T08:37:29.662Z,99.99
2022-12-23T08:38:27.339Z,99.99
2022-12-23T08:39:27.580Z,99.99
2022-12-23T08:40:27.314Z,99.99
2022-12-23T08:41:50.664Z,99.99
2022-12-23T08:42:27.317Z,99.99
2022-12-23T08:43:31.962Z,99.99
2022-12-23T08:44:27.273Z,99.99
2022-12-23T08:45:28.545Z,99.99
2022-12-23T08:46:27.438Z,99.99
2022-12-23T08:47:27.341Z,99.99
2022-12-23T08:48:27.242Z,99.99
2022-12-23T08:49:29.398Z,99.99
2022-12-23T08:50:27.225Z,99.99
2022-12-23T08:51:27.363Z,99.99
2022-12-23T08:52:27.235Z,99.99
2022-12-23T08:53:27.249Z,99.99
2022-12-23T08:54:27.159Z,99.99
2022-12-23T08:55:27.374Z,99.99
2022-12-23T08:56:27.191Z,99.99
2022-12-23T08:57:27.304Z,99.99
2022-12-23T08:58:27.135Z,99.99
2022-12-23T08:59:27.303Z,99.99
2022-12-23T09:00:27.310Z,99.99
2022-12-23T09:01:27.308Z,99.99
2022-12-23T09:02:29.661Z,99.99
2022-12-23T09:03:27.247Z,99.99
2022-12-23T09:04:27.339Z,99.99
2022-12-23T09:05:32.288Z,99.99
2022-12-23T09:06:30.007Z,99.99
2022-12-23T09:07:32.310Z,99.99
2022-12-23T09:08:27.033Z,99.99
2022-12-23T09:09:30.261Z,99.99
2022-12-23T09:10:29.216Z,99.99
2022-12-23T09:11:26.999Z,99.99
2022-12-23T09:12:29.226Z,99.99
2022-12-23T09:13:34.860Z,99.99
2022-12-23T09:14:26.998Z,99.99
2022-12-23T09:15:31.475Z,99.99
2022-12-23T09:16:27.023Z,99.99
2022-12-23T09:17:47.999Z,99.99
2022-12-23T09:18:26.916Z,99.99
2022-12-23T09:19:52.750Z,99.99
2022-12-23T09:20:27.007Z,99.99
2022-12-23T09:21:26.868Z,99.99
2022-12-23T09:22:26.936Z,99.99
2022-12-23T09:23:26.841Z,99.99
2022-12-23T09:24:26.983Z,99.99
2022-12-23T09:25:26.852Z,99.99
2022-12-23T09:26:48.060Z,99.99
2022-12-23T09:27:26.810Z,99.99
2022-12-23T09:28:26.888Z,99.99
2022-12-23T09:29:26.808Z,99.99
2022-12-23T09:30:26.895Z,99.99
2022-12-23T09:31:30.800Z,99.99
2022-12-23T09:32:26.759Z,99.99
2022-12-23T09:33:27.939Z,99.99
2022-12-23T09:34:26.738Z,99.99
2022-12-23T09:35:26.924Z,99.99
2022-12-23T09:36:26.732Z,99.99
2022-12-23T09:37:26.979Z,99.99
2022-12-23T09:38:26.684Z,99.99
2022-12-23T09:39:26.790Z,99.99
2022-12-23T09:40:26.665Z,99.99
2022-12-23T09:41:26.780Z,99.99
2022-12-23T09:42:26.675Z,99.99
2022-12-23T09:43:26.831Z,99.99
2022-12-23T09:44:26.618Z,99.99
2022-12-23T09:45:26.696Z,99.99
2022-12-23T09:46:26.679Z,99.99
2022-12-23T09:47:26.761Z,99.99
2022-12-23T09:48:26.582Z,99.99
2022-12-23T09:49:26.718Z,99.99
2022-12-23T09:50:26.583Z,99.99
2022-12-23T09:51:26.743Z,99.99
2022-12-23T09:52:26.571Z,99.99
2022-12-23T09:53:26.745Z,99.99
2022-12-23T09:54:26.536Z,99.99
2022-12-23T09:55:26.754Z,99.99
2022-12-23T09:56:26.517Z,99.99
2022-12-23T09:57:26.589Z,99.99
2022-12-23T09:58:26.503Z,99.99
2022-12-23T09:59:26.585Z,99.99
2022-12-23T10:00:26.467Z,99.99
2022-12-23T10:01:48.868Z,99.99
2022-12-23T10:02:26.702Z,99.99
2022-12-23T10:03:47.667Z,99.99
2022-12-23T10:04:26.482Z,99.99
2022-12-23T10:05:47.525Z,99.99
2022-12-23T10:06:47.526Z,99.99
2022-12-23T10:07:26.371Z,99.99
2022-12-23T10:08:26.402Z,99.99
2022-12-23T10:09:26.446Z,99.99
2022-12-23T10:10:26.357Z,99.99
2022-12-23T10:11:26.460Z,99.99
2022-12-23T10:12:28.864Z,99.99
2022-12-23T10:13:26.524Z,99.99
2022-12-23T10:14:26.298Z,99.99
2022-12-23T10:15:26.486Z,99.99
2022-12-23T10:16:26.354Z,99.99
2022-12-23T10:17:26.528Z,99.99
2022-12-23T10:18:26.625Z,99.99
2022-12-23T10:19:26.316Z,99.99
2022-12-23T10:20:26.243Z,99.99
2022-12-23T10:21:26.332Z,99.99
2022-12-23T10:22:26.231Z,99.99
2022-12-23T10:23:26.344Z,99.99
2022-12-23T10:24:26.236Z,99.99
2022-12-23T10:25:26.384Z,99.99
2022-12-23T10:26:26.234Z,99.99
2022-12-23T10:27:26.369Z,99.99
2022-12-23T10:28:29.570Z,99.99
2022-12-23T10:29:26.390Z,99.99
2022-12-23T10:30:56.852Z,99.99
2022-12-23T10:31:41.873Z,99.99
2022-12-23T10:32:26.251Z,99.99
2022-12-23T10:33:26.313Z,99.99
2022-12-23T10:34:26.107Z,99.99
2022-12-23T10:35:26.316Z,99.99
2022-12-23T10:36:26.171Z,99.99
2022-12-23T10:37:47.252Z,99.99
2022-12-23T10:38:26.046Z,99.99
2022-12-23T10:39:26.180Z,99.99
2022-12-23T10:40:26.034Z,99.99
2022-12-23T10:41:27.225Z,99.99
2022-12-23T10:42:26.005Z,99.99
2022-12-23T10:43:27.256Z,99.99
2022-12-23T10:44:25.987Z,99.99
2022-12-23T10:45:26.097Z,99.99
2022-12-23T10:46:26.032Z,99.99
2022-12-23T10:47:48.238Z,99.99
2022-12-23T10:48:25.951Z,99.99
2022-12-23T10:49:25.923Z,99.99
2022-12-23T10:50:28.216Z,99.99
2022-12-23T10:51:25.911Z,99.99
2022-12-23T10:52:47.027Z,99.99
2022-12-23T10:53:25.898Z,99.99
2022-12-23T10:54:25.942Z,99.99
2022-12-23T10:55:31.291Z,99.99
2022-12-23T10:56:25.921Z,99.99
2022-12-23T10:57:26.091Z,99.99
2022-12-23T10:58:25.907Z,99.99
2022-12-23T10:59:25.910Z,99.99
2022-12-23T11:00:25.899Z,99.99
2022-12-23T11:01:27.342Z,99.99
2022-12-23T11:02:25.977Z,99.99
2022-12-23T11:03:26.176Z,99.99
2022-12-23T11:04:25.783Z,99.99
2022-12-23T11:05:25.855Z,99.99
2022-12-23T11:06:27.919Z,99.99
2022-12-23T11:08:25.749Z,99.99
2022-12-23T11:09:25.731Z,99.99
2022-12-23T11:10:25.882Z,99.99
2022-12-23T11:11:25.705Z,99.99
2022-12-23T11:12:25.871Z,99.99
2022-12-23T11:13:25.695Z,99.99
2022-12-23T11:14:25.877Z,99.99
2022-12-23T11:15:25.695Z,99.99
2022-12-23T11:16:25.955Z,99.99
2022-12-23T11:17:26.628Z,99.99
2022-12-23T11:18:26.769Z,99.99
2022-12-23T11:19:25.630Z,99.99
2022-12-23T11:20:25.729Z,99.99
2022-12-23T11:21:25.628Z,99.99
2022-12-23T11:22:25.746Z,99.99
2022-12-23T11:23:25.578Z,99.99
2022-12-23T11:24:25.751Z,99.99
2022-12-23T11:25:25.577Z,99.99
2022-12-23T11:26:25.806Z,99.99
2022-12-23T11:27:25.535Z,99.99
2022-12-23T11:28:25.786Z,99.99
2022-12-23T11:29:25.519Z,99.99
2022-12-23T11:30:25.618Z,99.99
2022-12-23T11:31:25.524Z,99.99
2022-12-23T11:32:25.609Z,99.99
2022-12-23T11:33:25.475Z,99.99
2022-12-23T11:34:47.580Z,99.99
2022-12-23T11:35:25.500Z,99.99
2022-12-23T11:36:25.677Z,99.99
2022-12-23T11:37:27.126Z,99.99
2022-12-23T11:38:25.660Z,99.99
2022-12-23T11:39:25.385Z,99.99
2022-12-23T11:40:25.661Z,99.99
2022-12-23T11:41:25.409Z,99.99
2022-12-23T11:42:25.470Z,99.99
2022-12-23T11:43:25.368Z,99.99
2022-12-23T11:44:25.438Z,99.99
2022-12-23T11:45:25.390Z,99.99
2022-12-23T11:46:25.656Z,99.99
2022-12-23T11:47:25.331Z,99.99
2022-12-23T11:48:25.578Z,99.99
2022-12-23T11:49:25.315Z,99.99
2022-12-23T11:50:25.572Z,99.99
2022-12-23T11:51:25.282Z,99.99
2022-12-23T11:52:25.359Z,99.99
2022-12-23T11:53:25.339Z,99.99
2022-12-23T11:54:25.235Z,99.99
2022-12-23T11:55:25.471Z,99.99
2022-12-23T11:56:25.288Z,99.99
2022-12-23T11:57:25.473Z,99.99
2022-12-23T11:58:25.393Z,99.99
2022-12-23T11:59:25.640Z,99.99
2022-12-23T12:00:25.391Z,99.99
2022-12-23T12:01:25.238Z,99.99
2022-12-23T12:02:25.490Z,99.99
2022-12-23T12:03:27.460Z,99.99
2022-12-23T12:04:25.190Z,99.99
2022-12-23T12:05:25.357Z,99.99
2022-12-23T12:06:25.118Z,99.99
2022-12-23T12:07:26.294Z,99.99
2022-12-23T12:08:25.123Z,99.99
2022-12-23T12:09:25.352Z,99.99
2022-12-23T12:10:25.085Z,99.99
2022-12-23T12:11:25.278Z,99.99
2022-12-23T12:12:25.063Z,99.99
2022-12-23T12:13:25.293Z,99.99
2022-12-23T12:14:25.155Z,99.99
2022-12-23T12:15:25.304Z,99.99
2022-12-23T12:16:25.060Z,99.99
2022-12-23T12:17:25.110Z,99.99
2022-12-23T12:18:25.027Z,99.99
2022-12-23T12:19:25.117Z,99.99
2022-12-23T12:20:24.969Z,99.99
2022-12-23T12:21:25.026Z,99.99
2022-12-23T12:22:24.945Z,99.99
2022-12-23T12:23:25.072Z,99.99
2022-12-23T12:24:25.131Z,99.99
2022-12-23T12:25:25.077Z,99.99
2022-12-23T12:26:24.922Z,99.99
2022-12-23T12:27:25.087Z,99.99
2022-12-23T12:28:25.361Z,99.99
2022-12-23T12:29:25.133Z,99.99
2022-12-23T12:30:24.943Z,99.99
2022-12-23T12:31:25.048Z,99.99
2022-12-23T12:32:24.841Z,99.99
2022-12-23T12:33:25.086Z,99.99
2022-12-23T12:34:24.845Z,99.99
2022-12-23T12:35:25.948Z,99.99
2022-12-23T12:36:24.892Z,99.99
2022-12-23T12:37:24.937Z,99.99
2022-12-23T12:38:24.763Z,99.99
2022-12-23T12:39:24.877Z,99.99
2022-12-23T12:40:24.781Z,99.99
2022-12-23T12:41:24.874Z,99.99
2022-12-23T12:42:24.734Z,99.99
2022-12-23T12:43:24.993Z,99.99
2022-12-23T12:44:24.743Z,99.99
2022-12-23T12:45:24.895Z,99.99
2022-12-23T12:46:24.754Z,99.99
2022-12-23T12:48:24.676Z,99.99
2022-12-23T12:49:24.922Z,99.99
2022-12-23T12:50:24.675Z,99.99
2022-12-23T12:51:24.740Z,99.99
2022-12-23T12:52:24.628Z,99.99
2022-12-23T12:53:24.983Z,99.99
2022-12-23T12:54:24.762Z,99.99
2022-12-23T12:55:24.591Z,99.99
2022-12-23T12:56:24.766Z,99.99
2022-12-23T12:57:24.588Z,99.99
2022-12-23T12:58:29.829Z,99.99
2022-12-23T12:59:26.735Z,99.99
2022-12-23T13:00:24.553Z,99.99
2022-12-23T13:01:25.784Z,99.99
2022-12-23T13:02:24.574Z,99.99
2022-12-23T13:03:24.804Z,99.99
2022-12-23T13:04:24.479Z,99.99
2022-12-23T13:05:24.665Z,99.99
2022-12-23T13:06:24.477Z,99.99
2022-12-23T13:07:24.641Z,99.99
2022-12-23T13:08:24.460Z,99.99
2022-12-23T13:09:24.558Z,99.99
2022-12-23T13:10:24.426Z,99.99
2022-12-23T13:11:28.369Z,99.99
2022-12-23T13:12:24.399Z,99.99
2022-12-23T13:13:24.760Z,99.99
2022-12-23T13:14:24.396Z,99.99
2022-12-23T13:15:24.593Z,99.99
2022-12-23T13:16:24.417Z,99.99
2022-12-23T13:17:24.637Z,99.99
2022-12-23T13:18:24.339Z,99.99
2022-12-23T13:19:24.431Z,99.99
2022-12-23T13:20:24.303Z,99.99
2022-12-23T13:21:24.445Z,99.99
2022-12-23T13:22:24.307Z,99.99
2022-12-23T13:24:24.456Z,99.99
2022-12-23T13:25:24.276Z,99.99
2022-12-23T13:26:25.511Z,99.99
2022-12-23T13:27:24.263Z,99.99
2022-12-23T13:28:24.484Z,99.99
2022-12-23T13:29:24.223Z,99.99
2022-12-23T13:30:24.515Z,99.99
2022-12-23T13:31:24.217Z,99.99
2022-12-23T13:32:24.420Z,99.99
2022-12-23T13:33:24.257Z,99.99
2022-12-23T13:34:24.427Z,99.99
2022-12-23T13:35:24.137Z,99.99
2022-12-23T13:36:25.600Z,99.99
2022-12-23T13:37:24.133Z,99.99
2022-12-23T13:38:24.246Z,99.99
2022-12-23T13:39:24.107Z,99.99
2022-12-23T13:40:24.254Z,99.99
2022-12-23T13:41:24.150Z,99.99
2022-12-23T13:42:24.279Z,99.99
2022-12-23T13:43:24.050Z,99.99
2022-12-23T13:44:24.272Z,99.99
2022-12-23T13:45:24.035Z,99.99
2022-12-23T13:46:24.382Z,99.99
2022-12-23T13:47:24.016Z,99.99
2022-12-23T13:48:26.986Z,99.99
2022-12-23T13:49:24.023Z,99.99
2022-12-23T13:50:26.389Z,99.99
2022-12-23T13:51:23.971Z,99.99
2022-12-23T13:52:25.315Z,99.99
2022-12-23T13:53:23.948Z,99.99
2022-12-23T13:54:24.087Z,99.99
2022-12-23T13:55:24.064Z,99.99
2022-12-23T13:56:23.917Z,99.99
2022-12-23T13:57:24.101Z,99.99
2022-12-23T13:58:23.911Z,99.99
2022-12-23T13:59:24.074Z,99.99
2022-12-23T14:00:24.180Z,99.99
2022-12-23T14:01:23.907Z,99.99
2022-12-23T14:02:24.125Z,99.99
2022-12-23T14:03:23.880Z,99.99
2022-12-23T14:04:24.194Z,99.99
2022-12-23T14:05:23.820Z,99.99
2022-12-23T14:06:23.999Z,99.99
2022-12-23T14:07:23.828Z,99.99
2022-12-23T14:08:23.963Z,99.99
2022-12-23T14:09:23.784Z,99.99
2022-12-23T14:10:23.960Z,99.99
2022-12-23T14:11:23.769Z,99.99
2022-12-23T14:12:24.001Z,99.99
2022-12-23T14:13:23.779Z,99.99
2022-12-23T14:14:23.987Z,99.99
2022-12-23T14:15:23.766Z,99.99
2022-12-23T14:16:24.027Z,99.99
2022-12-23T14:17:23.712Z,99.99
2022-12-23T14:18:23.910Z,99.99
2022-12-23T14:19:23.717Z,99.99
2022-12-23T14:20:23.964Z,99.99
2022-12-23T14:21:23.662Z,99.99
2022-12-23T14:22:23.927Z,99.99
2022-12-23T14:23:23.644Z,99.99
2022-12-23T14:24:23.809Z,99.99
2022-12-23T14:25:23.618Z,99.99
2022-12-23T14:26:23.768Z,99.99
2022-12-23T14:27:23.615Z,99.99
2022-12-23T14:28:23.796Z,99.99
2022-12-23T14:29:23.575Z,99.99
2022-12-23T14:30:44.857Z,99.99
2022-12-23T14:31:23.652Z,99.99
2022-12-23T14:32:25.805Z,99.99
2022-12-23T14:33:23.535Z,99.99
2022-12-23T14:34:23.732Z,99.99
2022-12-23T14:35:23.511Z,99.99
2022-12-23T14:36:24.870Z,99.99
2022-12-23T14:37:23.477Z,99.99
2022-12-23T14:38:26.959Z,99.99
2022-12-23T14:39:23.471Z,99.99
2022-12-23T14:40:45.599Z,99.99
2022-12-23T14:41:33.533Z,99.99
2022-12-23T14:42:23.461Z,99.99
2022-12-23T14:43:44.627Z,99.99
2022-12-23T14:44:23.404Z,99.99
2022-12-23T14:45:23.417Z,99.99
2022-12-23T14:46:23.539Z,99.99
2022-12-23T14:47:23.411Z,99.99
2022-12-23T14:48:23.520Z,99.99
2022-12-23T14:49:39.667Z,99.99
2022-12-23T14:50:23.352Z,99.99
2022-12-23T14:51:23.556Z,99.99
2022-12-23T14:52:23.327Z,99.99
2022-12-23T14:53:23.496Z,99.99
2022-12-23T14:54:23.320Z,99.99
2022-12-23T14:55:31.897Z,99.99
2022-12-23T14:56:23.313Z,99.99
2022-12-23T14:57:23.393Z,99.99
2022-12-23T14:58:23.295Z,99.99
2022-12-23T14:59:23.396Z,99.99
2022-12-23T15:00:23.258Z,99.99
2022-12-23T15:01:23.432Z,99.99
2022-12-23T15:02:23.377Z,99.99
2022-12-23T15:03:23.656Z,99.99
2022-12-23T15:04:23.260Z,99.99
2022-12-23T15:05:23.430Z,99.99
2022-12-23T15:06:23.178Z,99.99
2022-12-23T15:07:23.436Z,99.99
2022-12-23T15:08:23.156Z,99.99
2022-12-23T15:09:23.247Z,99.99
2022-12-23T15:10:23.195Z,99.99
2022-12-23T15:11:23.261Z,99.99
2022-12-23T15:12:27.839Z,99.99
2022-12-23T15:13:23.131Z,99.99
2022-12-23T15:14:23.287Z,99.99
2022-12-23T15:15:23.077Z,99.99
2022-12-23T15:16:23.353Z,99.99
2022-12-23T15:17:23.300Z,99.99
2022-12-23T15:18:23.063Z,99.99
2022-12-23T15:19:23.357Z,99.99
2022-12-23T15:20:23.050Z,99.99
2022-12-23T15:21:23.125Z,99.99
2022-12-23T15:22:30.370Z,99.99
2022-12-23T15:23:23.028Z,99.99
2022-12-23T15:24:23.211Z,99.99
2022-12-23T15:25:23.015Z,99.99
2022-12-23T15:26:23.172Z,99.99
2022-12-23T15:27:28.271Z,99.99
2022-12-23T15:28:22.969Z,99.99
2022-12-23T15:29:23.090Z,99.99
2022-12-23T15:30:22.949Z,99.99
2022-12-23T15:31:23.146Z,99.99
2022-12-23T15:32:22.914Z,99.99
2022-12-23T15:34:00.529Z,99.99
2022-12-23T15:34:22.909Z,99.99
2022-12-23T15:35:23.168Z,99.99
2022-12-23T15:36:22.898Z,99.99
2022-12-23T15:37:23.139Z,99.99
2022-12-23T15:38:22.847Z,99.99
2022-12-23T15:39:23.974Z,99.99
2022-12-23T15:40:22.815Z,99.99
2022-12-23T15:41:25.048Z,99.99
2022-12-23T15:42:22.796Z,99.99
2022-12-23T15:43:24.014Z,99.99
2022-12-23T15:44:22.788Z,99.99
2022-12-23T15:45:24.062Z,99.99
2022-12-23T15:46:29.020Z,99.99
2022-12-23T15:47:22.841Z,99.99
2022-12-23T15:48:24.048Z,99.99
2022-12-23T15:49:22.714Z,99.99
2022-12-23T15:50:22.826Z,99.99
2022-12-23T15:51:49.526Z,99.99
2022-12-23T15:52:22.793Z,99.99
2022-12-23T15:53:22.951Z,99.99
2022-12-23T15:54:22.675Z,99.99
2022-12-23T15:55:22.960Z,99.99
2022-12-23T15:56:22.724Z,99.99
2022-12-23T15:57:22.764Z,99.99
2022-12-23T15:58:22.646Z,99.99
2022-12-23T15:59:22.781Z,99.99
2022-12-23T16:00:22.605Z,99.99
2022-12-23T16:01:22.859Z,99.99
2022-12-23T16:02:58.987Z,99.99
2022-12-23T16:03:22.975Z,99.99
2022-12-23T16:04:22.704Z,99.99
2022-12-23T16:05:22.833Z,99.99
2022-12-23T16:06:22.607Z,99.99
2022-12-23T16:07:22.892Z,99.99
2022-12-23T16:08:28.551Z,99.99
2022-12-23T16:09:22.566Z,99.99
2022-12-23T16:10:22.906Z,99.99
2022-12-23T16:11:22.565Z,99.99
2022-12-23T16:12:23.915Z,99.99
2022-12-23T16:13:22.549Z,99.99
2022-12-23T16:14:22.728Z,99.99
2022-12-23T16:15:22.495Z,99.99
2022-12-23T16:16:43.847Z,99.99
2022-12-23T16:17:22.514Z,99.99
2022-12-23T16:18:22.456Z,99.99
2022-12-23T16:19:26.860Z,99.99
2022-12-23T16:20:22.461Z,99.99
2022-12-23T16:21:22.770Z,99.99
2022-12-23T16:22:22.433Z,99.99
2022-12-23T16:23:22.551Z,99.99
2022-12-23T16:24:22.561Z,99.99
2022-12-23T16:25:22.420Z,99.99
2022-12-23T16:26:22.563Z,99.99
2022-12-23T16:27:22.392Z,99.99
2022-12-23T16:30:18.947Z,99.99
2022-12-23T16:31:17.716Z,99.99
2022-12-23T16:32:18.020Z,99.99
2022-12-23T16:33:17.731Z,99.99
2022-12-23T16:35:29.632Z,99.99
2022-12-23T16:36:29.471Z,99.99
2022-12-23T16:37:51.430Z,99.99
2022-12-23T16:38:29.368Z,99.99
2022-12-23T16:39:29.510Z,99.99
2022-12-23T16:40:29.345Z,99.99
2022-12-23T16:41:29.563Z,99.99
2022-12-23T16:42:29.322Z,99.99
2022-12-23T16:43:29.547Z,99.99
2022-12-23T16:44:32.709Z,99.99
2022-12-23T16:45:29.326Z,99.99
2022-12-23T16:46:29.554Z,99.99
2022-12-23T16:47:29.264Z,99.99
2022-12-23T16:48:29.599Z,99.99
2022-12-23T16:49:33.439Z,99.99
2022-12-23T16:50:29.245Z,99.99
2022-12-23T16:51:29.492Z,99.99
2022-12-23T16:52:29.254Z,99.99
2022-12-23T16:53:29.508Z,99.99
2022-12-23T16:54:29.207Z,99.99
2022-12-23T16:55:29.427Z,99.99
2022-12-23T16:56:29.183Z,99.99
2022-12-23T16:57:29.462Z,99.99
2022-12-23T16:58:29.169Z,99.99
2022-12-23T16:59:29.437Z,99.99
2022-12-23T17:00:29.148Z,99.99
2022-12-23T17:01:29.241Z,99.99
2022-12-23T17:02:29.393Z,99.99
2022-12-23T17:03:29.131Z,99.99
2022-12-23T17:04:29.295Z,99.99
2022-12-23T17:05:29.093Z,99.99
2022-12-23T17:06:29.303Z,99.99
2022-12-23T17:07:29.099Z,99.99
2022-12-23T17:08:29.325Z,99.99
2022-12-23T17:09:29.069Z,99.99
2022-12-23T17:10:50.212Z,99.99
2022-12-23T17:11:29.034Z,99.99
2022-12-23T17:12:29.178Z,99.99
2022-12-23T17:13:29.022Z,99.99
2022-12-23T17:14:29.212Z,99.99
2022-12-23T17:15:29.164Z,99.99
2022-12-23T17:16:29.074Z,99.99
2022-12-23T17:17:29.183Z,99.99
2022-12-23T17:18:28.967Z,99.99
2022-12-23T17:19:29.728Z,99.99
2022-12-23T17:20:28.932Z,99.99
2022-12-23T17:21:29.238Z,99.99
2022-12-23T17:22:28.910Z,99.82
2022-12-23T17:23:29.042Z,99.93
2022-12-23T17:24:28.891Z,99.72
2022-12-23T17:25:29.032Z,99.41
2022-12-23T17:26:28.876Z,99.11
2022-12-23T17:27:29.038Z,99.21
2022-12-23T17:28:28.862Z,99.11
2022-12-23T17:29:29.098Z,99.11
2022-12-23T17:30:29.067Z,98.60
2022-12-23T17:31:28.852Z,99.01
2022-12-23T17:32:29.187Z,98.19
2022-12-23T17:33:28.811Z,99.41
2022-12-23T17:34:29.099Z,99.21
2022-12-23T17:35:28.940Z,99.21
2022-12-23T17:36:28.853Z,99.21
2022-12-23T17:37:29.972Z,99.26
2022-12-23T17:38:28.738Z,99.05
2022-12-23T17:39:29.020Z,98.24
2022-12-23T17:40:29.959Z,99.36
2022-12-23T17:41:28.727Z,98.24
2022-12-23T17:42:28.977Z,98.24
2022-12-23T17:43:28.717Z,98.13
2022-12-23T17:44:28.959Z,97.82
2022-12-23T17:45:28.721Z,98.29
2022-12-23T17:46:49.960Z,97.88
2022-12-23T17:47:28.668Z,97.21
2022-12-23T17:48:32.212Z,97.92
2022-12-23T17:49:28.639Z,97.31
2022-12-23T17:50:29.920Z,96.80
2022-12-23T17:51:28.622Z,97.92
2022-12-23T17:52:29.972Z,97.31
2022-12-23T17:53:28.588Z,97.52
2022-12-23T17:54:28.727Z,96.84
2022-12-23T17:55:28.607Z,97.15
2022-12-23T17:56:28.805Z,97.46
2022-12-23T17:57:28.582Z,96.84
2022-12-23T17:58:28.745Z,97.46
2022-12-23T17:59:28.544Z,97.25
2022-12-23T18:00:34.212Z,97.15
2022-12-23T18:01:28.626Z,96.74
2022-12-23T18:02:28.818Z,97.87
2022-12-23T18:03:28.518Z,97.97
2022-12-23T18:04:28.788Z,97.87
2022-12-23T18:05:28.463Z,97.46
2022-12-23T18:06:28.514Z,97.20
2022-12-23T18:07:28.435Z,99.25
2022-12-23T18:08:28.510Z,97.61
2022-12-23T18:09:28.432Z,98.63
2022-12-23T18:10:30.572Z,98.33
2022-12-23T18:11:28.404Z,97.91
2022-12-23T18:12:28.431Z,97.71
2022-12-23T18:13:28.400Z,98.63
2022-12-23T18:14:28.458Z,97.71
2022-12-23T18:15:28.384Z,98.22
2022-12-23T18:16:28.598Z,98.43
2022-12-23T18:17:28.330Z,98.63
2022-12-23T18:18:35.608Z,98.74
2022-12-23T18:19:28.345Z,98.22
2022-12-23T18:20:28.488Z,99.25
2022-12-23T18:21:28.528Z,98.63
2022-12-23T18:22:28.335Z,98.33
2022-12-23T18:23:29.457Z,99.04
2022-12-23T18:24:28.304Z,98.63
2022-12-23T18:25:28.314Z,98.74
2022-12-23T18:26:28.345Z,98.74
2022-12-23T18:27:28.242Z,97.56
2022-12-23T18:28:28.442Z,97.77
2022-12-23T18:29:28.215Z,97.25
2022-12-23T18:30:30.595Z,98.49
2022-12-23T18:31:28.425Z,97.05
2022-12-23T18:32:28.192Z,97.77
2022-12-23T18:33:28.275Z,97.36
2022-12-23T18:34:28.169Z,97.25
2022-12-23T18:35:29.319Z,96.74
2022-12-23T18:36:28.526Z,97.56
2022-12-23T18:37:28.143Z,97.97
2022-12-23T18:38:49.206Z,97.46
2022-12-23T18:39:28.123Z,97.36
2022-12-23T18:40:49.238Z,96.13
2022-12-23T18:41:28.115Z,98.07
2022-12-23T18:42:28.086Z,97.15
2022-12-23T18:43:28.154Z,96.54
2022-12-23T18:44:28.100Z,96.74
2022-12-23T18:45:28.165Z,95.72
2022-12-23T18:46:28.096Z,95.51
2022-12-23T18:47:28.333Z,96.23
2022-12-23T18:48:28.054Z,96.44
2022-12-23T18:49:28.097Z,95.62
2022-12-23T18:50:28.034Z,96.03
2022-12-23T18:51:28.107Z,96.33
2022-12-23T18:52:28.027Z,97.77
2022-12-23T18:53:28.282Z,96.64
2022-12-23T18:54:28.060Z,96.64
2022-12-23T18:55:29.300Z,97.71
2022-12-23T18:56:27.957Z,97.30
2022-12-23T18:57:28.260Z,97.05
2022-12-23T18:58:27.960Z,96.13
2022-12-23T18:59:30.248Z,96.23
2022-12-23T19:00:27.898Z,96.03
2022-12-23T19:01:28.197Z,96.84
2022-12-23T19:02:27.915Z,96.33
2022-12-23T19:03:28.960Z,97.25
2022-12-23T19:04:28.678Z,96.03
2022-12-23T19:09:57.439Z,97.15
2022-12-23T19:10:58.252Z,96.03
2022-12-23T19:11:58.458Z,96.64
2022-12-23T19:12:58.198Z,95.92
2022-12-23T19:13:58.628Z,96.23
2022-12-23T19:14:58.207Z,96.44
2022-12-23T19:15:59.613Z,95.92
2022-12-23T19:16:58.187Z,95.92
2022-12-23T19:17:58.402Z,97.25
2022-12-23T19:18:58.216Z,95.10
2022-12-23T19:20:00.402Z,95.56
2022-12-23T19:20:58.151Z,96.69
2022-12-23T19:21:59.433Z,95.36
2022-12-23T19:22:58.107Z,96.89
2022-12-23T19:23:58.339Z,95.97
2022-12-23T19:25:05.918Z,95.66
2022-12-23T19:25:58.107Z,95.66
2022-12-23T19:27:00.423Z,94.74
2022-12-23T19:27:58.071Z,95.15
2022-12-23T19:28:58.302Z,96.58
2022-12-23T19:29:58.036Z,95.15
2022-12-23T19:30:58.290Z,96.17
2022-12-23T19:31:59.611Z,96.38
2022-12-23T19:32:59.202Z,96.28
2022-12-23T19:33:58.012Z,96.69
2022-12-23T19:34:58.194Z,96.58
2022-12-23T19:35:58.011Z,97.71
2022-12-23T19:36:58.244Z,97.30
2022-12-23T19:38:19.011Z,96.69
2022-12-23T19:38:57.949Z,96.58
2022-12-23T19:39:58.129Z,96.79
2022-12-23T19:40:57.920Z,96.89
2022-12-23T19:41:58.040Z,97.71
2022-12-23T19:42:58.093Z,96.58
2022-12-23T19:43:58.669Z,96.99
2022-12-23T19:44:58.104Z,97.40
2022-12-23T19:45:57.936Z,97.09
2022-12-23T19:46:58.074Z,96.28
2022-12-23T19:47:58.128Z,97.61
2022-12-23T19:48:57.845Z,97.09
2022-12-23T19:49:58.113Z,96.89
2022-12-23T19:50:57.842Z,95.66
2022-12-23T19:51:58.121Z,96.84
2022-12-23T19:52:57.795Z,97.15
2022-12-23T19:53:58.051Z,97.46
2022-12-23T19:54:57.775Z,97.36
2022-12-23T19:55:59.232Z,97.77
2022-12-23T19:56:57.770Z,97.25
2022-12-23T19:57:57.967Z,96.44
2022-12-23T19:58:57.774Z,97.46
2022-12-23T19:59:57.804Z,97.15
2022-12-23T20:00:57.705Z,96.69
2022-12-23T20:01:58.926Z,97.46
2022-12-23T20:02:59.132Z,97.36
2022-12-23T20:03:57.913Z,98.02
2022-12-23T20:04:57.695Z,98.02
2022-12-23T20:05:57.741Z,96.28
2022-12-23T20:06:57.644Z,96.89
2022-12-23T20:07:57.724Z,97.97
2022-12-23T20:09:00.551Z,96.99
2022-12-23T20:09:58.650Z,96.13
2022-12-23T20:10:57.603Z,95.72
2022-12-23T20:11:57.773Z,95.62
2022-12-23T20:12:57.574Z,95.62
2022-12-23T20:13:57.762Z,96.03
2022-12-23T20:14:57.593Z,97.15
2022-12-23T20:15:57.629Z,95.51
2022-12-23T20:16:57.532Z,96.03
2022-12-23T20:17:57.589Z,95.41
2022-12-23T20:18:57.534Z,94.49
2022-12-23T20:19:57.616Z,94.70
2022-12-23T20:20:57.530Z,95.21
2022-12-23T20:21:58.676Z,96.74
2022-12-23T20:22:57.620Z,95.21
2022-12-23T20:23:57.533Z,94.08
2022-12-23T20:24:57.465Z,95.31
2022-12-23T20:25:57.545Z,94.18
2022-12-23T20:26:57.438Z,95.92
2022-12-23T20:27:57.461Z,95.72
2022-12-23T20:28:57.483Z,95.82
2022-12-23T20:29:57.420Z,95.82
2022-12-23T20:30:57.537Z,95.41
2022-12-23T20:31:57.376Z,95.62
2022-12-23T20:32:57.518Z,96.03
2022-12-23T20:33:57.508Z,94.70
2022-12-23T20:34:57.340Z,95.46
2022-12-23T20:35:57.486Z,94.95
2022-12-23T20:36:57.314Z,95.15
2022-12-23T20:37:57.547Z,94.90
2022-12-23T20:38:57.532Z,94.70
2022-12-23T20:39:57.289Z,94.90
2022-12-23T20:40:57.440Z,94.18
2022-12-23T20:41:57.277Z,94.18
2022-12-23T20:42:57.446Z,95.41
2022-12-23T20:44:32.540Z,94.80
2022-12-23T20:44:57.261Z,93.67
2022-12-23T20:45:57.368Z,94.49
2022-12-23T20:46:57.368Z,93.37
2022-12-23T20:47:57.241Z,93.98
2022-12-23T20:48:57.399Z,95.72
2022-12-23T20:49:57.188Z,93.67
2022-12-23T20:50:57.244Z,95.21
2022-12-23T20:51:57.160Z,93.98
2022-12-23T20:52:59.381Z,94.90
2022-12-23T20:53:57.160Z,95.51
2022-12-23T20:54:57.376Z,95.00
2022-12-23T20:55:58.437Z,95.05
2022-12-23T20:56:58.419Z,95.76
2022-12-23T20:57:57.114Z,95.25
2022-12-23T20:58:57.154Z,96.48
2022-12-23T20:59:57.138Z,95.25
2022-12-23T21:00:57.167Z,96.48
2022-12-23T21:01:57.119Z,96.17
2022-12-23T21:02:57.157Z,95.36
2022-12-23T21:03:57.046Z,95.76
2022-12-23T21:04:57.207Z,96.69
2022-12-23T21:05:57.052Z,97.09
2022-12-23T21:06:57.107Z,96.79
2022-12-23T21:07:57.041Z,97.50